createdAt,value
2018-11-29T00:00:53.810Z,7.67
2018-11-29T00:01:53.827Z,7.72
2018-11-29T00:02:53.799Z,7.83
2018-11-29T00:03:53.802Z,7.82
2018-11-29T00:04:53.792Z,7.83
2018-11-29T00:05:53.788Z,7.83
2018-11-29T00:06:53.796Z,7.72
2018-11-29T00:07:53.793Z,7.73
2018-11-29T00:08:53.776Z,7.73
2018-11-29T00:09:53.774Z,7.72
2018-11-29T00:10:53.788Z,7.87
2018-11-29T00:11:53.774Z,7.93
2018-11-29T00:12:53.763Z,7.80
2018-11-29T00:13:53.753Z,7.83
2018-11-29T00:14:53.761Z,7.85
2018-11-29T00:15:53.748Z,7.85
2018-11-29T00:16:53.756Z,7.83
2018-11-29T00:17:53.737Z,7.90
2018-11-29T00:18:53.735Z,7.94
2018-11-29T00:19:53.743Z,7.87
2018-11-29T00:20:53.727Z,7.88
2018-11-29T00:21:53.720Z,7.90
2018-11-29T00:22:53.719Z,7.94
2018-11-29T00:23:53.736Z,7.93
2018-11-29T00:24:53.719Z,7.88
2018-11-29T00:25:53.707Z,7.85
2018-11-29T00:26:53.704Z,7.91
2018-11-29T00:27:53.695Z,7.95
2018-11-29T00:28:53.699Z,7.94
2018-11-29T00:29:53.688Z,7.93
2018-11-29T00:30:53.897Z,7.94
2018-11-29T00:31:53.680Z,7.94
2018-11-29T00:32:53.679Z,7.88
2018-11-29T00:33:53.711Z,7.90
2018-11-29T00:34:53.669Z,7.88
2018-11-29T00:35:53.676Z,7.91
2018-11-29T00:36:53.672Z,7.90
2018-11-29T00:38:03.994Z,7.95
2018-11-29T00:38:53.667Z,8.01
2018-11-29T00:39:53.672Z,7.93
2018-11-29T00:40:53.660Z,7.97
2018-11-29T00:41:53.638Z,8.00
2018-11-29T00:42:53.634Z,7.90
2018-11-29T00:43:53.631Z,8.08
2018-11-29T00:44:53.642Z,7.97
2018-11-29T00:45:53.622Z,7.98
2018-11-29T00:46:53.618Z,7.97
2018-11-29T00:47:53.626Z,7.95
2018-11-29T00:48:53.619Z,8.01
2018-11-29T00:49:53.619Z,7.94
2018-11-29T00:50:53.613Z,8.03
2018-11-29T00:51:53.597Z,8.01
2018-11-29T00:52:53.590Z,8.05
2018-11-29T00:53:53.592Z,8.00
2018-11-29T00:54:53.585Z,8.01
2018-11-29T00:55:53.596Z,8.00
2018-11-29T00:56:53.576Z,7.95
2018-11-29T00:57:53.588Z,7.98
2018-11-29T00:58:53.566Z,7.97
2018-11-29T00:59:53.577Z,8.00
2018-11-29T01:00:53.561Z,8.03
2018-11-29T01:01:53.554Z,8.06
2018-11-29T01:02:53.567Z,8.05
2018-11-29T01:03:53.581Z,8.08
2018-11-29T01:04:53.553Z,8.08
2018-11-29T01:05:53.547Z,8.12
2018-11-29T01:06:53.546Z,8.09
2018-11-29T01:07:53.531Z,8.05
2018-11-29T01:08:53.531Z,8.12
2018-11-29T01:09:53.553Z,8.18
2018-11-29T01:10:53.534Z,8.19
2018-11-29T01:11:53.530Z,8.16
2018-11-29T01:12:53.527Z,8.19
2018-11-29T01:13:53.506Z,8.20
2018-11-29T01:14:53.705Z,8.23
2018-11-29T01:15:53.530Z,8.23
2018-11-29T01:16:53.518Z,8.20
2018-11-29T01:17:53.490Z,8.20
2018-11-29T01:18:53.494Z,8.18
2018-11-29T01:19:53.480Z,8.19
2018-11-29T01:20:53.493Z,8.18
2018-11-29T01:21:53.472Z,8.30
2018-11-29T01:22:53.498Z,8.23
2018-11-29T01:23:53.479Z,8.28
2018-11-29T01:24:53.475Z,8.23
2018-11-29T01:25:53.457Z,8.26
2018-11-29T01:26:53.449Z,8.26
2018-11-29T01:27:53.457Z,8.31
2018-11-29T01:28:53.446Z,8.20
2018-11-29T01:29:53.449Z,8.30
2018-11-29T01:30:53.439Z,8.23
2018-11-29T01:31:53.442Z,8.23
2018-11-29T01:32:53.423Z,8.23
2018-11-29T01:33:53.423Z,8.26
2018-11-29T01:34:53.420Z,8.27
2018-11-29T01:35:53.416Z,8.36
2018-11-29T01:36:53.424Z,8.37
2018-11-29T01:37:53.407Z,8.38
2018-11-29T01:38:53.408Z,8.23
2018-11-29T01:39:53.409Z,8.34
2018-11-29T01:40:53.393Z,8.31
2018-11-29T01:41:53.421Z,8.26
2018-11-29T01:42:53.428Z,8.41
2018-11-29T01:43:53.382Z,8.23
2018-11-29T01:44:53.377Z,8.20
2018-11-29T01:45:53.372Z,8.28
2018-11-29T01:46:53.380Z,8.33
2018-11-29T01:47:53.365Z,8.30
2018-11-29T01:48:53.378Z,8.34
2018-11-29T01:49:53.356Z,8.24
2018-11-29T01:50:53.377Z,8.36
2018-11-29T01:51:53.366Z,8.26
2018-11-29T01:52:53.345Z,8.36
2018-11-29T01:53:53.340Z,8.30
2018-11-29T01:54:53.347Z,8.26
2018-11-29T01:55:53.333Z,8.28
2018-11-29T01:56:53.342Z,8.26
2018-11-29T01:57:53.325Z,8.26
2018-11-29T01:58:53.336Z,8.27
2018-11-29T01:59:53.317Z,8.26
2018-11-29T02:00:53.310Z,8.20
2018-11-29T02:01:53.320Z,8.26
2018-11-29T02:02:53.326Z,8.24
2018-11-29T02:03:53.312Z,8.31
2018-11-29T02:04:53.300Z,8.27
2018-11-29T02:05:53.292Z,8.27
2018-11-29T02:06:53.292Z,8.28
2018-11-29T02:07:53.285Z,8.27
2018-11-29T02:08:53.306Z,8.20
2018-11-29T02:09:53.288Z,8.26
2018-11-29T02:10:53.282Z,8.27
2018-11-29T02:11:53.284Z,8.26
2018-11-29T02:12:53.275Z,8.23
2018-11-29T02:13:53.257Z,8.27
2018-11-29T02:14:53.316Z,8.31
2018-11-29T02:15:53.253Z,8.26
2018-11-29T02:16:53.246Z,8.24
2018-11-29T02:17:53.242Z,8.27
2018-11-29T02:18:53.240Z,8.28
2018-11-29T02:19:53.234Z,8.19
2018-11-29T02:20:53.230Z,8.26
2018-11-29T02:21:53.223Z,8.28
2018-11-29T02:22:53.248Z,8.27
2018-11-29T02:23:53.221Z,8.24
2018-11-29T02:24:53.213Z,8.30
2018-11-29T02:25:53.207Z,8.30
2018-11-29T02:26:53.213Z,8.27
2018-11-29T02:27:53.203Z,8.27
2018-11-29T02:28:53.199Z,8.23
2018-11-29T02:29:53.219Z,8.19
2018-11-29T02:30:53.191Z,8.24
2018-11-29T02:31:53.185Z,8.26
2018-11-29T02:32:53.180Z,8.26
2018-11-29T02:33:53.186Z,8.27
2018-11-29T02:34:53.172Z,8.26
2018-11-29T02:35:53.169Z,8.27
2018-11-29T02:36:53.166Z,8.23
2018-11-29T02:37:53.171Z,8.24
2018-11-29T02:38:53.159Z,8.30
2018-11-29T02:39:53.163Z,8.26
2018-11-29T02:40:53.158Z,8.41
2018-11-29T02:41:53.146Z,8.31
2018-11-29T02:42:53.140Z,8.26
2018-11-29T02:43:53.135Z,8.24
2018-11-29T02:44:53.131Z,8.26
2018-11-29T02:45:53.126Z,8.30
2018-11-29T02:46:53.122Z,8.24
2018-11-29T02:47:53.116Z,8.20
2018-11-29T02:48:53.127Z,8.24
2018-11-29T02:49:53.121Z,8.28
2018-11-29T02:50:53.126Z,8.27
2018-11-29T02:51:53.113Z,8.27
2018-11-29T02:52:53.098Z,8.20
2018-11-29T02:53:53.091Z,8.23
2018-11-29T02:54:53.098Z,8.27
2018-11-29T02:55:53.087Z,8.28
2018-11-29T02:56:53.090Z,8.24
2018-11-29T02:57:53.086Z,8.19
2018-11-29T02:58:53.082Z,8.26
2018-11-29T02:59:53.069Z,8.24
2018-11-29T03:00:53.066Z,8.28
2018-11-29T03:01:53.064Z,8.30
2018-11-29T03:02:53.056Z,8.24
2018-11-29T03:03:53.063Z,8.26
2018-11-29T03:04:53.051Z,8.23
2018-11-29T03:05:53.052Z,8.24
2018-11-29T03:06:53.049Z,8.24
2018-11-29T03:07:53.036Z,8.26
2018-11-29T03:08:53.032Z,8.41
2018-11-29T03:09:53.050Z,8.38
2018-11-29T03:10:53.039Z,8.34
2018-11-29T03:11:53.027Z,8.31
2018-11-29T03:12:53.014Z,8.34
2018-11-29T03:13:53.022Z,8.33
2018-11-29T03:14:53.020Z,8.30
2018-11-29T03:15:53.019Z,8.27
2018-11-29T03:16:53.003Z,8.27
2018-11-29T03:17:52.998Z,8.23
2018-11-29T03:18:53.005Z,8.31
2018-11-29T03:19:52.986Z,8.23
2018-11-29T03:20:52.986Z,8.26
2018-11-29T03:21:52.981Z,8.23
2018-11-29T03:22:52.987Z,8.36
2018-11-29T03:23:52.985Z,8.41
2018-11-29T03:24:52.968Z,8.30
2018-11-29T03:25:52.977Z,8.42
2018-11-29T03:26:52.971Z,8.33
2018-11-29T03:27:52.964Z,8.36
2018-11-29T03:28:52.953Z,8.37
2018-11-29T03:29:52.946Z,8.42
2018-11-29T03:30:52.946Z,8.28
2018-11-29T03:31:52.939Z,8.26
2018-11-29T03:32:52.954Z,8.28
2018-11-29T03:33:52.945Z,8.28
2018-11-29T03:34:52.927Z,8.24
2018-11-29T03:35:52.922Z,8.38
2018-11-29T03:36:52.920Z,8.34
2018-11-29T03:37:52.914Z,8.34
2018-11-29T03:38:52.912Z,8.28
2018-11-29T03:39:52.908Z,8.26
2018-11-29T03:40:52.903Z,8.30
2018-11-29T03:41:52.916Z,8.26
2018-11-29T03:42:52.906Z,8.28
2018-11-29T03:43:52.889Z,8.24
2018-11-29T03:44:52.900Z,8.41
2018-11-29T03:45:52.886Z,8.24
2018-11-29T03:46:52.890Z,8.31
2018-11-29T03:47:52.876Z,8.28
2018-11-29T03:48:52.882Z,8.28
2018-11-29T03:49:52.874Z,8.30
2018-11-29T03:50:52.873Z,8.41
2018-11-29T03:51:52.863Z,8.41
2018-11-29T03:52:52.883Z,8.36
2018-11-29T03:53:52.867Z,8.36
2018-11-29T03:54:52.878Z,8.42
2018-11-29T03:55:52.859Z,8.37
2018-11-29T03:56:52.842Z,8.48
2018-11-29T03:57:52.849Z,8.48
2018-11-29T03:58:52.843Z,8.48
2018-11-29T03:59:52.834Z,8.45
2018-11-29T04:00:52.845Z,8.41
2018-11-29T04:01:52.822Z,8.34
2018-11-29T04:02:52.818Z,8.42
2018-11-29T04:03:52.825Z,8.37
2018-11-29T04:04:52.822Z,8.46
2018-11-29T04:05:52.819Z,8.45
2018-11-29T04:06:52.817Z,8.42
2018-11-29T04:07:52.798Z,8.53
2018-11-29T04:08:52.796Z,8.45
2018-11-29T04:09:52.792Z,8.49
2018-11-29T04:10:52.789Z,8.45
2018-11-29T04:11:52.786Z,8.55
2018-11-29T04:12:52.783Z,8.48
2018-11-29T04:13:52.794Z,8.44
2018-11-29T04:14:52.771Z,8.46
2018-11-29T04:15:52.781Z,8.46
2018-11-29T04:16:52.764Z,8.41
2018-11-29T04:17:52.764Z,8.45
2018-11-29T04:18:52.755Z,8.44
2018-11-29T04:19:52.763Z,8.44
2018-11-29T04:20:52.758Z,8.42
2018-11-29T04:21:52.748Z,8.48
2018-11-29T04:22:52.741Z,8.44
2018-11-29T04:23:52.740Z,8.46
2018-11-29T04:24:52.744Z,8.48
2018-11-29T04:25:52.733Z,8.48
2018-11-29T04:26:52.731Z,8.53
2018-11-29T04:27:52.735Z,8.48
2018-11-29T04:28:52.720Z,8.45
2018-11-29T04:29:52.723Z,8.38
2018-11-29T04:30:52.711Z,8.46
2018-11-29T04:31:52.731Z,8.48
2018-11-29T04:32:53.346Z,8.38
2018-11-29T04:33:52.701Z,8.48
2018-11-29T04:34:52.711Z,8.45
2018-11-29T04:35:52.708Z,8.42
2018-11-29T04:36:52.894Z,8.41
2018-11-29T04:37:52.688Z,8.45
2018-11-29T04:38:52.707Z,8.41
2018-11-29T04:39:52.679Z,8.45
2018-11-29T04:40:52.678Z,8.45
2018-11-29T04:41:52.673Z,8.52
2018-11-29T04:42:52.669Z,8.56
2018-11-29T04:43:52.679Z,8.48
2018-11-29T04:44:52.672Z,8.41
2018-11-29T04:45:52.669Z,8.53
2018-11-29T04:46:52.672Z,8.55
2018-11-29T04:47:52.652Z,8.52
2018-11-29T04:48:52.658Z,8.38
2018-11-29T04:49:52.692Z,8.52
2018-11-29T04:50:52.648Z,8.45
2018-11-29T04:51:52.650Z,8.49
2018-11-29T04:52:52.641Z,8.51
2018-11-29T04:53:52.627Z,8.51
2018-11-29T04:54:52.623Z,8.53
2018-11-29T04:55:52.619Z,8.55
2018-11-29T04:56:52.617Z,8.52
2018-11-29T04:57:52.624Z,8.58
2018-11-29T04:58:52.626Z,8.52
2018-11-29T04:59:52.621Z,8.53
2018-11-29T05:00:52.616Z,8.52
2018-11-29T05:01:52.624Z,8.58
2018-11-29T05:02:52.595Z,8.55
2018-11-29T05:03:52.602Z,8.51
2018-11-29T05:04:52.790Z,8.55
2018-11-29T05:05:52.615Z,8.52
2018-11-29T05:06:52.581Z,8.58
2018-11-29T05:07:52.590Z,8.60
2018-11-29T05:08:52.583Z,8.52
2018-11-29T05:09:52.578Z,8.58
2018-11-29T05:10:52.564Z,8.58
2018-11-29T05:11:52.609Z,8.58
2018-11-29T05:12:52.574Z,8.60
2018-11-29T05:13:52.568Z,8.55
2018-11-29T05:14:52.565Z,8.60
2018-11-29T05:15:52.593Z,8.60
2018-11-29T05:16:52.543Z,8.61
2018-11-29T05:17:52.541Z,8.60
2018-11-29T05:18:52.750Z,8.52
2018-11-29T05:19:52.546Z,8.52
2018-11-29T05:20:52.530Z,8.56
2018-11-29T05:21:52.524Z,8.61
2018-11-29T05:22:52.527Z,8.56
2018-11-29T05:23:52.516Z,8.55
2018-11-29T05:24:52.528Z,8.60
2018-11-29T05:25:52.510Z,8.56
2018-11-29T05:26:52.510Z,8.53
2018-11-29T05:27:52.502Z,8.60
2018-11-29T05:28:52.500Z,8.58
2018-11-29T05:29:52.494Z,8.60
2018-11-29T05:30:52.501Z,8.53
2018-11-29T05:31:52.503Z,8.61
2018-11-29T05:32:52.507Z,8.45
2018-11-29T05:33:52.492Z,8.55
2018-11-29T05:34:52.478Z,8.58
2018-11-29T05:35:52.482Z,8.56
2018-11-29T05:36:52.470Z,8.51
2018-11-29T05:37:52.668Z,8.56
2018-11-29T05:38:52.463Z,8.61
2018-11-29T05:39:52.459Z,8.58
2018-11-29T05:40:52.458Z,8.52
2018-11-29T05:41:52.667Z,8.51
2018-11-29T05:42:52.450Z,8.55
2018-11-29T05:43:52.459Z,8.53
2018-11-29T05:44:52.443Z,8.60
2018-11-29T05:45:52.436Z,8.55
2018-11-29T05:46:52.437Z,8.60
2018-11-29T05:47:52.429Z,8.53
2018-11-29T05:48:52.442Z,8.55
2018-11-29T05:49:52.446Z,8.56
2018-11-29T05:50:52.429Z,8.60
2018-11-29T05:51:52.416Z,8.56
2018-11-29T05:52:52.412Z,8.58
2018-11-29T05:53:52.411Z,8.58
2018-11-29T05:54:52.428Z,8.53
2018-11-29T05:55:52.620Z,8.49
2018-11-29T05:56:52.409Z,8.52
2018-11-29T05:57:52.398Z,8.51
2018-11-29T05:58:52.594Z,8.52
2018-11-29T05:59:52.605Z,8.53
2018-11-29T06:00:52.390Z,8.52
2018-11-29T06:01:52.427Z,8.49
2018-11-29T06:02:52.394Z,8.44
2018-11-29T06:03:52.396Z,8.37
2018-11-29T06:04:52.386Z,8.52
2018-11-29T06:05:52.378Z,8.52
2018-11-29T06:06:52.362Z,8.48
2018-11-29T06:07:52.361Z,8.58
2018-11-29T06:08:52.356Z,8.52
2018-11-29T06:09:52.362Z,8.42
2018-11-29T06:10:52.348Z,8.58
2018-11-29T06:11:52.355Z,8.46
2018-11-29T06:12:52.346Z,8.52
2018-11-29T06:13:52.338Z,8.52
2018-11-29T06:14:52.335Z,8.51
2018-11-29T06:15:52.332Z,8.49
2018-11-29T06:16:52.327Z,8.56
2018-11-29T06:17:52.368Z,8.51
2018-11-29T06:18:52.320Z,8.49
2018-11-29T06:19:52.316Z,8.52
2018-11-29T06:20:52.319Z,8.45
2018-11-29T06:21:52.512Z,8.44
2018-11-29T06:22:52.310Z,8.46
2018-11-29T06:23:52.303Z,8.37
2018-11-29T06:24:52.299Z,8.37
2018-11-29T06:25:52.308Z,8.37
2018-11-29T06:26:52.290Z,8.38
2018-11-29T06:27:52.290Z,8.42
2018-11-29T06:28:52.488Z,8.44
2018-11-29T06:29:52.320Z,8.37
2018-11-29T06:30:52.284Z,8.41
2018-11-29T06:31:52.273Z,8.38
2018-11-29T06:32:52.433Z,8.31
2018-11-29T06:33:52.266Z,8.33
2018-11-29T06:34:52.261Z,8.33
2018-11-29T06:35:52.260Z,8.36
2018-11-29T06:36:52.257Z,8.42
2018-11-29T06:37:52.256Z,8.30
2018-11-29T06:38:52.250Z,8.36
2018-11-29T06:39:52.248Z,8.33
2018-11-29T06:40:52.247Z,8.34
2018-11-29T06:41:52.247Z,8.37
2018-11-29T06:42:52.235Z,8.41
2018-11-29T06:43:52.234Z,8.48
2018-11-29T06:44:52.256Z,8.46
2018-11-29T06:45:52.227Z,8.31
2018-11-29T06:46:52.220Z,8.38
2018-11-29T06:47:52.216Z,8.31
2018-11-29T06:48:52.217Z,8.44
2018-11-29T06:49:52.211Z,8.48
2018-11-29T06:50:52.206Z,8.44
2018-11-29T06:51:52.202Z,8.37
2018-11-29T06:52:52.200Z,8.51
2018-11-29T06:53:52.196Z,8.42
2018-11-29T06:54:52.190Z,8.48
2018-11-29T06:55:52.190Z,8.46
2018-11-29T06:56:52.223Z,8.48
2018-11-29T06:57:52.187Z,8.45
2018-11-29T06:58:52.180Z,8.52
2018-11-29T06:59:52.178Z,8.46
2018-11-29T07:00:52.174Z,8.44
2018-11-29T07:01:52.167Z,8.42
2018-11-29T07:02:52.160Z,8.38
2018-11-29T07:03:52.164Z,8.46
2018-11-29T07:04:52.355Z,8.55
2018-11-29T07:05:52.153Z,8.52
2018-11-29T07:06:52.164Z,8.49
2018-11-29T07:07:52.148Z,8.61
2018-11-29T07:08:52.163Z,8.53
2018-11-29T07:09:52.135Z,8.55
2018-11-29T07:10:52.135Z,8.52
2018-11-29T07:11:52.142Z,8.49
2018-11-29T07:12:52.127Z,8.55
2018-11-29T07:13:52.135Z,8.49
2018-11-29T07:14:52.120Z,8.52
2018-11-29T07:15:52.114Z,8.55
2018-11-29T07:16:52.117Z,8.58
2018-11-29T07:17:52.111Z,8.53
2018-11-29T07:18:52.106Z,8.48
2018-11-29T07:19:52.098Z,8.51
2018-11-29T07:20:52.096Z,8.55
2018-11-29T07:21:52.108Z,8.49
2018-11-29T07:22:52.105Z,8.49
2018-11-29T07:23:52.084Z,8.45
2018-11-29T07:24:52.096Z,8.52
2018-11-29T07:25:52.075Z,8.49
2018-11-29T07:26:52.076Z,8.53
2018-11-29T07:27:52.071Z,8.55
2018-11-29T07:28:52.078Z,8.51
2018-11-29T07:29:52.063Z,8.42
2018-11-29T07:30:52.061Z,8.37
2018-11-29T07:31:52.272Z,8.56
2018-11-29T07:32:52.269Z,8.52
2018-11-29T07:33:52.081Z,8.45
2018-11-29T07:34:52.070Z,8.45
2018-11-29T07:35:52.069Z,8.42
2018-11-29T07:36:52.042Z,8.55
2018-11-29T07:37:52.045Z,8.48
2018-11-29T07:38:52.031Z,8.51
2018-11-29T07:39:52.042Z,8.51
2018-11-29T07:40:52.022Z,8.52
2018-11-29T07:41:52.020Z,8.53
2018-11-29T07:42:52.025Z,8.56
2018-11-29T07:43:52.035Z,8.55
2018-11-29T07:44:52.450Z,8.52
2018-11-29T07:45:52.008Z,8.51
2018-11-29T07:46:52.014Z,8.48
2018-11-29T07:47:52.012Z,8.49
2018-11-29T07:48:52.000Z,8.55
2018-11-29T07:49:52.017Z,8.49
2018-11-29T07:50:51.989Z,8.53
2018-11-29T07:51:51.997Z,8.55
2018-11-29T07:52:52.006Z,8.58
2018-11-29T07:53:51.985Z,8.52
2018-11-29T07:54:51.982Z,8.52
2018-11-29T07:55:51.980Z,8.51
2018-11-29T07:56:51.991Z,8.56
2018-11-29T07:57:51.980Z,8.55
2018-11-29T07:58:53.082Z,8.55
2018-11-29T07:59:51.961Z,8.60
2018-11-29T08:00:51.952Z,8.52
2018-11-29T08:01:51.947Z,8.58
2018-11-29T08:02:51.953Z,8.60
2018-11-29T08:03:51.939Z,8.60
2018-11-29T08:04:51.936Z,8.58
2018-11-29T08:05:52.153Z,8.53
2018-11-29T08:06:51.942Z,8.53
2018-11-29T08:07:51.956Z,8.55
2018-11-29T08:08:51.927Z,8.61
2018-11-29T08:09:51.925Z,8.60
2018-11-29T08:10:51.917Z,8.51
2018-11-29T08:11:51.929Z,8.56
2018-11-29T08:12:51.921Z,8.56
2018-11-29T08:13:51.905Z,8.53
2018-11-29T08:14:52.104Z,8.61
2018-11-29T08:15:51.908Z,8.56
2018-11-29T08:16:51.905Z,8.60
2018-11-29T08:17:51.900Z,8.61
2018-11-29T08:18:51.886Z,8.58
2018-11-29T08:19:51.885Z,8.60
2018-11-29T08:20:51.891Z,8.66
2018-11-29T08:21:51.898Z,8.60
2018-11-29T08:22:51.876Z,8.60
2018-11-29T08:23:51.874Z,8.67
2018-11-29T08:24:51.869Z,8.69
2018-11-29T08:25:52.063Z,8.63
2018-11-29T08:26:51.858Z,8.63
2018-11-29T08:27:51.854Z,8.73
2018-11-29T08:28:51.852Z,8.61
2018-11-29T08:29:51.858Z,8.70
2018-11-29T08:30:51.845Z,8.66
2018-11-29T08:31:51.846Z,8.67
2018-11-29T08:32:51.852Z,8.61
2018-11-29T08:33:51.843Z,8.69
2018-11-29T08:34:51.830Z,8.71
2018-11-29T08:35:51.839Z,8.69
2018-11-29T08:36:51.833Z,8.70
2018-11-29T08:37:51.831Z,8.74
2018-11-29T08:38:54.859Z,8.74
2018-11-29T08:39:51.813Z,8.76
2018-11-29T08:40:51.835Z,8.74
2018-11-29T08:41:51.816Z,8.70
2018-11-29T08:42:51.803Z,8.78
2018-11-29T08:43:51.798Z,8.71
2018-11-29T08:44:51.997Z,8.82
2018-11-29T08:45:51.793Z,8.82
2018-11-29T08:46:51.816Z,8.84
2018-11-29T08:47:51.801Z,8.84
2018-11-29T08:48:51.796Z,8.82
2018-11-29T08:49:51.790Z,8.78
2018-11-29T08:50:51.778Z,8.79
2018-11-29T08:51:51.787Z,8.81
2018-11-29T08:52:51.983Z,8.87
2018-11-29T08:53:51.766Z,8.79
2018-11-29T08:54:51.763Z,8.88
2018-11-29T08:55:51.756Z,8.95
2018-11-29T08:56:51.755Z,8.89
2018-11-29T08:57:51.749Z,8.85
2018-11-29T08:58:51.758Z,8.88
2018-11-29T08:59:51.762Z,8.89
2018-11-29T09:00:51.751Z,8.97
2018-11-29T09:01:51.744Z,8.99
2018-11-29T09:02:51.744Z,8.81
2018-11-29T09:03:51.738Z,8.97
2018-11-29T09:04:51.746Z,8.94
2018-11-29T09:05:51.732Z,8.94
2018-11-29T09:06:51.715Z,8.99
2018-11-29T09:07:51.733Z,8.87
2018-11-29T09:08:51.710Z,8.91
2018-11-29T09:09:51.711Z,8.95
2018-11-29T09:10:51.702Z,8.92
2018-11-29T09:11:51.699Z,8.95
2018-11-29T09:12:51.697Z,8.99
2018-11-29T09:13:51.726Z,8.95
2018-11-29T09:14:51.690Z,8.88
2018-11-29T09:15:51.688Z,8.87
2018-11-29T09:16:51.683Z,8.88
2018-11-29T09:17:51.686Z,8.82
2018-11-29T09:18:51.692Z,8.91
2018-11-29T09:19:51.677Z,8.78
2018-11-29T09:20:51.668Z,8.88
2018-11-29T09:21:51.867Z,8.81
2018-11-29T09:22:51.665Z,8.84
2018-11-29T09:23:51.681Z,8.74
2018-11-29T09:24:51.668Z,8.87
2018-11-29T09:25:51.649Z,8.85
2018-11-29T09:26:51.648Z,8.84
2018-11-29T09:27:51.655Z,8.85
2018-11-29T09:28:51.651Z,8.79
2018-11-29T09:29:51.854Z,8.70
2018-11-29T09:30:51.637Z,8.74
2018-11-29T09:31:51.659Z,8.76
2018-11-29T09:32:51.627Z,8.74
2018-11-29T09:33:51.624Z,8.78
2018-11-29T09:34:51.617Z,8.70
2018-11-29T09:35:51.631Z,8.66
2018-11-29T09:36:51.613Z,8.66
2018-11-29T09:37:51.632Z,8.64
2018-11-29T09:38:51.618Z,8.67
2018-11-29T09:39:51.603Z,8.71
2018-11-29T09:40:51.600Z,8.64
2018-11-29T09:41:51.605Z,8.66
2018-11-29T09:42:51.610Z,8.61
2018-11-29T09:43:51.588Z,8.69
2018-11-29T09:44:51.586Z,8.66
2018-11-29T09:45:51.580Z,8.56
2018-11-29T09:46:51.578Z,8.60
2018-11-29T09:47:51.580Z,8.53
2018-11-29T09:48:51.569Z,8.56
2018-11-29T09:49:51.579Z,8.53
2018-11-29T09:50:51.563Z,8.56
2018-11-29T09:51:51.560Z,8.55
2018-11-29T09:52:51.573Z,8.56
2018-11-29T09:53:51.564Z,8.52
2018-11-29T09:54:51.573Z,8.49
2018-11-29T09:55:51.545Z,8.56
2018-11-29T09:56:51.542Z,8.58
2018-11-29T09:57:51.547Z,8.58
2018-11-29T09:58:51.537Z,8.58
2018-11-29T09:59:51.534Z,8.60
2018-11-29T10:00:51.527Z,8.66
2018-11-29T10:01:51.741Z,8.56
2018-11-29T10:02:51.521Z,8.61
2018-11-29T10:03:51.516Z,8.61
2018-11-29T10:04:51.515Z,8.58
2018-11-29T10:05:51.509Z,8.53
2018-11-29T10:06:51.508Z,8.55
2018-11-29T10:07:51.524Z,8.51
2018-11-29T10:08:51.500Z,8.55
2018-11-29T10:09:51.506Z,8.63
2018-11-29T10:10:51.503Z,8.56
2018-11-29T10:11:51.492Z,8.55
2018-11-29T10:12:51.494Z,8.56
2018-11-29T10:13:51.495Z,8.60
2018-11-29T10:14:51.478Z,8.58
2018-11-29T10:15:51.481Z,8.60
2018-11-29T10:16:51.472Z,8.53
2018-11-29T10:17:51.469Z,8.61
2018-11-29T10:18:51.476Z,8.53
2018-11-29T10:19:51.462Z,8.53
2018-11-29T10:20:51.470Z,8.53
2018-11-29T10:21:51.453Z,8.60
2018-11-29T10:22:51.455Z,8.66
2018-11-29T10:23:51.459Z,8.61
2018-11-29T10:24:51.456Z,8.64
2018-11-29T10:25:51.451Z,8.63
2018-11-29T10:26:51.449Z,8.70
2018-11-29T10:27:51.433Z,8.66
2018-11-29T10:28:51.431Z,8.73
2018-11-29T10:29:51.428Z,8.74
2018-11-29T10:30:51.425Z,8.71
2018-11-29T10:31:51.432Z,8.74
2018-11-29T10:32:51.429Z,8.71
2018-11-29T10:33:51.413Z,8.74
2018-11-29T10:34:51.407Z,8.76
2018-11-29T10:35:51.408Z,8.74
2018-11-29T10:36:51.421Z,8.73
2018-11-29T10:37:51.406Z,8.73
2018-11-29T10:38:51.401Z,8.73
2018-11-29T10:39:51.403Z,8.76
2018-11-29T10:40:51.389Z,8.76
2018-11-29T10:41:51.397Z,8.73
2018-11-29T10:42:51.382Z,8.73
2018-11-29T10:43:51.389Z,8.73
2018-11-29T10:44:51.377Z,8.71
2018-11-29T10:45:51.379Z,8.73
2018-11-29T10:46:51.376Z,8.73
2018-11-29T10:47:52.460Z,8.81
2018-11-29T10:48:51.363Z,8.73
2018-11-29T10:49:51.370Z,8.71
2018-11-29T10:50:51.365Z,8.76
2018-11-29T10:51:51.365Z,8.76
2018-11-29T10:52:51.574Z,8.78
2018-11-29T10:53:51.400Z,8.74
2018-11-29T10:54:51.341Z,8.84
2018-11-29T10:55:51.363Z,8.70
2018-11-29T10:56:51.346Z,8.74
2018-11-29T10:57:51.343Z,8.76
2018-11-29T10:58:51.337Z,8.70
2018-11-29T10:59:51.350Z,8.73
2018-11-29T11:00:51.348Z,8.67
2018-11-29T11:01:51.535Z,8.70
2018-11-29T11:02:51.333Z,8.78
2018-11-29T11:03:51.326Z,8.74
2018-11-29T11:04:51.315Z,8.70
2018-11-29T11:05:51.329Z,8.66
2018-11-29T11:06:51.303Z,8.67
2018-11-29T11:07:51.305Z,8.69
2018-11-29T11:08:51.290Z,8.70
2018-11-29T11:09:51.287Z,8.71
2018-11-29T11:10:51.285Z,8.71
2018-11-29T11:11:51.309Z,8.73
2018-11-29T11:12:51.280Z,8.74
2018-11-29T11:13:51.296Z,8.69
2018-11-29T11:14:51.283Z,8.67
2018-11-29T11:15:51.287Z,8.64
2018-11-29T11:16:51.279Z,8.71
2018-11-29T11:17:51.272Z,8.63
2018-11-29T11:18:51.260Z,8.63
2018-11-29T11:19:51.255Z,8.66
2018-11-29T11:20:51.250Z,8.66
2018-11-29T11:21:51.249Z,8.66
2018-11-29T11:22:51.259Z,8.63
2018-11-29T11:23:51.241Z,8.67
2018-11-29T11:24:51.243Z,8.61
2018-11-29T11:25:51.235Z,8.58
2018-11-29T11:26:51.241Z,8.56
2018-11-29T11:27:51.251Z,8.64
2018-11-29T11:28:51.223Z,8.56
2018-11-29T11:29:51.221Z,8.63
2018-11-29T11:30:51.215Z,8.56
2018-11-29T11:31:51.216Z,8.55
2018-11-29T11:32:51.415Z,8.44
2018-11-29T11:33:51.233Z,8.52
2018-11-29T11:34:51.204Z,8.52
2018-11-29T11:35:51.210Z,8.55
2018-11-29T11:36:51.213Z,8.53
2018-11-29T11:37:51.211Z,8.52
2018-11-29T11:38:51.197Z,8.46
2018-11-29T11:39:51.200Z,8.45
2018-11-29T11:40:51.184Z,8.44
2018-11-29T11:41:51.179Z,8.52
2018-11-29T11:42:51.256Z,8.44
2018-11-29T11:43:51.181Z,8.46
2018-11-29T11:44:51.168Z,8.37
2018-11-29T11:45:51.181Z,8.36
2018-11-29T11:46:51.172Z,8.33
2018-11-29T11:47:51.172Z,8.38
2018-11-29T11:48:51.154Z,8.36
2018-11-29T11:49:51.150Z,8.34
2018-11-29T11:50:51.147Z,8.42
2018-11-29T11:51:51.146Z,8.30
2018-11-29T11:52:51.151Z,8.24
2018-11-29T11:53:51.150Z,8.44
2018-11-29T11:54:51.147Z,8.26
2018-11-29T11:55:53.665Z,8.31
2018-11-29T11:56:51.140Z,8.26
2018-11-29T11:57:51.324Z,8.42
2018-11-29T11:58:51.131Z,8.26
2018-11-29T11:59:51.126Z,8.28
2018-11-29T12:00:51.123Z,8.34
2018-11-29T12:01:51.331Z,8.30
2018-11-29T12:02:51.113Z,8.20
2018-11-29T12:03:51.198Z,8.30
2018-11-29T12:04:51.129Z,8.20
2018-11-29T12:05:51.097Z,8.27
2018-11-29T12:06:51.101Z,8.24
2018-11-29T12:07:51.086Z,8.19
2018-11-29T12:08:51.086Z,8.28
2018-11-29T12:09:51.095Z,8.20
2018-11-29T12:10:51.079Z,8.24
2018-11-29T12:11:51.084Z,8.27
2018-11-29T12:12:51.069Z,8.26
2018-11-29T12:13:51.072Z,8.27
2018-11-29T12:14:51.078Z,8.26
2018-11-29T12:15:51.062Z,8.27
2018-11-29T12:16:51.070Z,8.26
2018-11-29T12:17:51.062Z,8.27
2018-11-29T12:18:51.077Z,8.26
2018-11-29T12:19:51.050Z,8.24
2018-11-29T12:20:51.057Z,8.30
2018-11-29T12:21:51.060Z,8.24
2018-11-29T12:22:51.052Z,8.26
2018-11-29T12:23:51.026Z,8.41
2018-11-29T12:24:51.025Z,8.37
2018-11-29T12:25:51.031Z,8.33
2018-11-29T12:26:51.016Z,8.37
2018-11-29T12:27:51.013Z,8.34
2018-11-29T12:28:51.022Z,8.34
2018-11-29T12:29:51.017Z,8.37
2018-11-29T12:30:51.012Z,8.33
2018-11-29T12:31:51.020Z,8.48
2018-11-29T12:32:50.991Z,8.52
2018-11-29T12:33:51.026Z,8.51
2018-11-29T12:34:50.998Z,8.53
2018-11-29T12:35:50.981Z,8.52
2018-11-29T12:36:50.976Z,8.56
2018-11-29T12:37:50.986Z,8.64
2018-11-29T12:38:50.988Z,8.66
2018-11-29T12:39:50.965Z,8.66
2018-11-29T12:40:50.959Z,8.70
2018-11-29T12:41:50.977Z,8.73
2018-11-29T12:42:50.969Z,8.82
2018-11-29T12:43:50.954Z,8.81
2018-11-29T12:44:50.956Z,8.81
2018-11-29T12:45:50.944Z,8.81
2018-11-29T12:46:50.948Z,8.84
2018-11-29T12:47:50.931Z,8.84
2018-11-29T12:48:50.929Z,8.78
2018-11-29T12:49:50.944Z,8.76
2018-11-29T12:50:50.918Z,8.73
2018-11-29T12:51:50.927Z,8.74
2018-11-29T12:52:50.911Z,8.74
2018-11-29T12:53:50.908Z,8.74
2018-11-29T12:54:50.912Z,8.73
2018-11-29T12:55:50.921Z,8.66
2018-11-29T12:56:50.911Z,8.66
2018-11-29T12:58:04.353Z,8.67
2018-11-29T12:58:50.901Z,8.63
2018-11-29T12:59:50.899Z,8.66
2018-11-29T13:00:50.883Z,8.60
2018-11-29T13:01:50.878Z,8.64
2018-11-29T13:02:50.873Z,8.53
2018-11-29T13:03:50.881Z,8.56
2018-11-29T13:04:50.867Z,8.52
2018-11-29T13:05:50.876Z,8.55
2018-11-29T13:06:50.863Z,8.51
2018-11-29T13:07:50.873Z,8.48
2018-11-29T13:08:50.851Z,8.52
2018-11-29T13:09:50.858Z,8.48
2018-11-29T13:10:50.855Z,8.46
2018-11-29T13:11:50.856Z,8.34
2018-11-29T13:12:50.838Z,8.48
2018-11-29T13:13:50.847Z,8.36
2018-11-29T13:14:50.844Z,8.38
2018-11-29T13:15:50.853Z,8.49
2018-11-29T13:16:50.824Z,8.42
2018-11-29T13:17:50.822Z,8.42
2018-11-29T13:18:50.825Z,8.42